Time;durP1;ratioP1;P1;durP2;ratioP2;P2;SDS_P1;SDS_P2;PMS_P1;PMS_P2;Temp;Humidity;BMP_temperature;BMP_pressure;BME280_temperature;BME280_humidity;BME280_pressure;Samples;Min_cycle;Max_cycle;Signal;HPM_P1;HPM_P2
2021/07/14 11:45:08;;;;;;;;;16.25;15.50;;;;;22.93;57.32;100761.25;4919409;28;45506;-71
2021/07/14 11:47:34;;;;;;;;;12.00;11.25;;;;;23.00;55.37;100765.41;4922351;28;45338;-70
2021/07/14 11:50:00;;;;;;;;;10.75;10.75;;;;;23.04;54.72;100779.47;4891360;28;47134;-71
2021/07/14 11:52:47;;;;;;;;;10.25;9.75;;;;;23.09;54.77;100780.13;4909782;28;45400;-74
2021/07/14 11:55:24;;;;;;;;;8.75;8.75;;;;;23.08;53.52;100778.38;4923201;28;45263;-74
2021/07/14 11:57:50;;;;;;;;;9.50;9.00;;;;;23.06;53.22;100778.47;4930412;28;46291;-74
2021/07/14 12:00:16;;;;;;;;;11.50;11.50;;;;;23.06;52.95;100778.47;4938540;28;45995;-74
2021/07/14 12:02:57;;;;;;;;;10.50;10.00;;;;;23.08;52.55;100786.38;4922675;28;45555;-71
2021/07/14 12:05:34;;;;;;;;;11.50;11.50;;;;;23.07;52.80;100785.50;4924101;28;45198;-72
2021/07/14 12:08:10;;;;;;;;;18.00;16.75;;;;;23.07;52.44;100784.66;4907578;28;45313;-75
2021/07/14 12:10:36;;;;;;;;;12.00;11.00;;;;;23.04;52.87;100774.13;4907014;28;46901;-73
2021/07/14 12:13:01;;;;;;;;;17.25;13.50;;;;;23.06;52.63;100777.59;4923540;28;45425;-71
2021/07/14 12:15:27;;;;;;;;;13.00;11.75;;;;;23.09;53.32;100782.78;4923075;28;45359;-74
2021/07/14 12:17:53;;;;;;;;;18.25;13.75;;;;;23.09;54.30;100783.63;4910835;28;45555;-73
2021/07/14 12:20:18;;;;;;;;;20.50;16.00;;;;;23.14;55.39;100796.78;4923963;28;45393;-72
2021/07/14 12:22:43;;;;;;;;;15.00;13.50;;;;;23.18;53.54;100789.50;4920201;28;58559;-74
2021/07/14 12:25:13;;;;;;;;;12.00;10.50;;;;;23.19;52.98;100789.44;4908140;28;45612;-72
2021/07/14 12:27:43;;;;;;;;;13.25;12.00;;;;;23.20;52.55;100787.69;4936561;28;45555;-73
2021/07/14 12:30:10;;;;;;;;;11.75;11.25;;;;;23.23;52.55;100788.41;4907408;28;47284;-73
2021/07/14 12:32:42;;;;;;;;;10.25;9.75;;;;;23.25;53.12;100791.00;4922313;28;45401;-73
2021/07/14 12:35:35;;;;;;;;;10.50;9.75;;;;;23.24;52.20;100789.25;4922588;28;45295;-73
2021/07/14 12:38:04;;;;;;;;;13.25;12.00;;;;;23.28;52.25;100791.75;4920273;28;45485;-75
2021/07/14 12:40:31;;;;;;;;;11.50;10.75;;;;;23.30;51.66;100803.19;4922201;28;47284;-74
2021/07/14 12:42:59;;;;;;;;;12.00;10.75;;;;;23.32;51.51;100795.13;4922744;28;45472;-73
2021/07/14 12:45:28;;;;;;;;;10.50;10.00;;;;;23.33;51.41;100796.88;4922481;28;45292;-73
2021/07/14 12:47:54;;;;;;;;;12.00;10.75;;;;;23.31;50.89;100788.94;4923310;28;45445;-72
2021/07/14 12:50:26;;;;;;;;;12.25;12.00;;;;;23.32;51.21;100789.81;4923411;28;45328;-73
2021/07/14 12:52:56;;;;;;;;;9.75;9.75;;;;;23.30;51.55;100792.53;4922834;28;45337;-73
2021/07/14 12:55:22;;;;;;;;;11.75;10.50;;;;;23.32;51.28;100793.34;4906288;28;45418;-75
2021/07/14 12:57:48;;;;;;;;;12.25;11.50;;;;;23.37;51.33;100787.81;4920073;28;45393;-77
2021/07/14 13:00:16;;;;;;;;;11.25;9.75;;;;;23.36;51.48;100778.94;4921036;28;45414;-75
2021/07/14 13:02:58;;;;;;;;;11.50;9.75;;;;;23.42;51.66;100789.34;4922566;28;45331;-73
2021/07/14 13:05:24;;;;;;;;;10.50;10.50;;;;;23.45;51.52;100788.34;4935853;28;45228;-77
2021/07/14 13:07:51;;;;;;;;;13.50;11.50;;;;;23.48;50.94;100774.91;4905622;28;45269;-75
2021/07/14 13:10:18;;;;;;;;;11.00;11.00;;;;;23.51;51.57;100780.09;4901958;28;48574;-74
2021/07/14 13:12:44;;;;;;;;;11.75;11.00;;;;;23.48;51.17;100769.56;4919890;28;45434;-71
2021/07/14 13:15:11;;;;;;;;;11.00;10.00;;;;;23.52;50.82;100776.47;4921900;28;45521;-71
2021/07/14 13:17:37;;;;;;;;;13.75;11.25;;;;;23.55;50.82;100781.69;4913990;28;45273;-72
2021/07/14 13:20:12;;;;;;;;;12.50;12.50;;;;;23.56;50.71;100788.75;4908671;28;45363;-71
2021/07/14 13:22:38;;;;;;;;;13.00;11.75;;;;;23.51;50.66;100790.75;4923015;28;45226;-71
2021/07/14 13:25:14;;;;;;;;;11.75;11.25;;;;;23.55;50.58;100797.69;4907045;28;45323;-71
2021/07/14 13:27:40;;;;;;;;;13.00;10.00;;;;;23.54;50.14;100795.91;4922487;28;45172;-73
2021/07/14 13:30:22;;;;;;;;;11.75;11.75;;;;;23.48;50.12;100785.56;4905319;28;46067;-71
2021/07/14 13:33:06;;;;;;;;;12.75;11.50;;;;;23.49;50.00;100791.75;4921469;28;45283;-72
2021/07/14 13:35:39;;;;;;;;;11.25;10.00;;;;;23.46;50.64;100787.44;4922858;28;45289;-72
2021/07/14 13:38:27;;;;;;;;;11.75;11.00;;;;;23.45;50.70;100787.47;4922503;28;45275;-71
2021/07/14 13:41:02;;;;;;;;;11.50;11.50;;;;;23.44;50.83;100789.25;4937152;28;47337;-70
2021/07/14 13:43:53;;;;;;;;;13.50;13.00;;;;;23.41;50.71;100789.41;4921184;28;45398;-71
2021/07/14 13:46:23;;;;;;;;;10.50;10.25;;;;;23.42;50.31;100784.00;4912788;28;45444;-71
2021/07/14 13:48:57;;;;;;;;;10.50;10.50;;;;;23.42;50.14;100791.13;4921311;28;45496;-70
2021/07/14 13:51:48;;;;;;;;;14.25;12.75;;;;;23.39;50.27;100785.94;4922066;28;46606;-70
2021/07/14 13:54:26;;;;;;;;;14.25;11.75;;;;;23.39;50.50;100791.28;4923589;28;45342;-71
2021/07/14 13:57:13;;;;;;;;;12.00;11.75;;;;;23.38;49.91;100800.22;4922557;28;45446;-71
2021/07/14 13:59:42;;;;;;;;;12.00;11.50;;;;;23.37;50.76;100811.78;4922185;28;45661;-71
2021/07/14 14:02:12;;;;;;;;;15.00;13.00;;;;;23.35;50.32;100802.97;4936797;28;45492;-70
2021/07/14 14:04:40;;;;;;;;;13.75;13.75;;;;;23.37;50.53;100809.13;4922318;28;45247;-70
2021/07/14 14:07:06;;;;;;;;;13.00;13.00;;;;;23.38;50.53;100806.41;4922520;28;45400;-70
2021/07/14 14:09:32;;;;;;;;;14.50;13.00;;;;;23.37;50.67;100798.47;4921145;28;45437;-70
2021/07/14 14:11:59;;;;;;;;;9.50;9.50;;;;;23.38;50.08;100806.41;4925017;28;64308;-71
2021/07/14 14:14:25;;;;;;;;;12.25;12.25;;;;;23.38;50.40;100814.38;4923977;28;45370;-71
2021/07/14 14:16:50;;;;;;;;;14.25;13.00;;;;;23.38;50.55;100811.72;4924752;28;45468;-71
2021/07/14 14:19:17;;;;;;;;;12.75;12.75;;;;;23.37;50.08;100804.66;4924491;28;45514;-70
2021/07/14 14:21:55;;;;;;;;;11.75;11.00;;;;;23.38;50.29;100808.19;4924504;28;45304;-70
2021/07/14 14:24:20;;;;;;;;;13.75;12.50;;;;;23.38;50.59;100814.38;4908493;28;45285;-71
2021/07/14 14:26:50;;;;;;;;;17.25;15.75;;;;;23.34;50.33;100812.78;4924405;28;45277;-71
2021/07/14 14:29:17;;;;;;;;;14.25;12.75;;;;;23.36;50.75;100820.69;4908984;28;45810;-71
2021/07/14 14:31:43;;;;;;;;;21.00;17.75;;;;;23.35;50.56;100810.97;4908317;28;46148;-71
2021/07/14 14:34:08;;;;;;;;;13.00;13.00;;;;;23.34;50.20;100819.91;4925144;28;45230;-71
2021/07/14 14:36:34;;;;;;;;;14.00;14.00;;;;;23.36;50.42;100815.38;4908319;28;45480;-71
2021/07/14 14:39:00;;;;;;;;;16.50;16.50;;;;;23.37;50.26;100823.31;4908039;28;45430;-71
2021/07/14 14:41:25;;;;;;;;;15.75;13.25;;;;;23.36;50.28;100812.69;4925091;28;45433;-71
2021/07/14 14:43:51;;;;;;;;;17.00;14.75;;;;;23.35;50.11;100824.28;4906935;28;58239;-71
2021/07/14 14:46:16;;;;;;;;;13.75;12.75;;;;;23.37;50.48;100822.44;4908127;28;45430;-71
2021/07/14 14:48:44;;;;;;;;;16.00;14.75;;;;;23.36;50.49;100826.00;4908006;28;45533;-71
2021/07/14 14:51:11;;;;;;;;;18.25;15.75;;;;;23.36;50.06;100815.38;4908102;28;46020;-71
2021/07/14 14:53:38;;;;;;;;;19.50;16.25;;;;;23.36;49.67;100812.69;4907945;28;45301;-71
2021/07/14 14:56:03;;;;;;;;;16.75;15.00;;;;;23.33;49.88;100816.38;4924055;28;45264;-71
2021/07/14 14:58:31;;;;;;;;;16.75;16.75;;;;;23.33;49.88;100815.50;4907414;28;45572;-71
2021/07/14 15:00:56;;;;;;;;;17.75;16.00;;;;;23.31;49.63;100823.56;4908220;28;45526;-71
2021/07/14 15:03:22;;;;;;;;;13.50;13.25;;;;;23.31;49.88;100820.03;4919975;28;45330;-71
2021/07/14 15:05:47;;;;;;;;;17.75;13.75;;;;;23.31;49.53;100833.34;4922910;28;66461;-71
2021/07/14 15:08:13;;;;;;;;;17.25;15.00;;;;;23.27;49.69;100813.09;4923477;28;45283;-71
2021/07/14 15:10:39;;;;;;;;;18.00;15.75;;;;;23.30;49.68;100828.97;4907591;28;47102;-71
2021/07/14 15:13:07;;;;;;;;;15.50;15.50;;;;;23.27;49.47;100826.41;4919944;28;45411;-71
2021/07/14 15:15:32;;;;;;;;;18.25;16.50;;;;;23.27;49.73;100826.41;4908281;28;45263;-71
2021/07/14 15:17:58;;;;;;;;;16.50;14.25;;;;;23.26;50.00;100828.19;4907562;28;45675;-72
2021/07/14 15:20:23;;;;;;;;;15.75;14.75;;;;;23.24;49.91;100835.41;4922388;28;68311;-72
2021/07/14 15:22:50;;;;;;;;;14.00;13.75;;;;;23.24;50.63;100819.41;4923262;28;45180;-72
2021/07/14 15:25:35;;;;;;;;;16.75;14.25;;;;;23.26;49.38;100825.53;4907759;28;45316;-72
2021/07/14 15:30:44;;;;;;;;;18.25;15.50;;;;;23.21;49.45;100824.03;4909786;28;45296;-74
2021/07/14 15:33:09;;;;;;;;;14.75;14.00;;;;;23.22;49.95;100834.59;4922459;28;65038;-72
2021/07/14 15:35:35;;;;;;;;;18.75;17.25;;;;;23.21;49.63;100821.34;4922403;28;61121;-71
2021/07/14 15:38:00;;;;;;;;;17.25;14.50;;;;;23.22;49.96;100828.41;4922610;28;57769;-72
2021/07/14 15:40:26;;;;;;;;;15.25;14.25;;;;;23.26;50.12;100827.34;4906915;28;45422;-72
2021/07/14 15:42:51;;;;;;;;;17.25;16.25;;;;;23.25;49.78;100831.81;4922406;28;45450;-72
2021/07/14 15:45:17;;;;;;;;;15.25;14.25;;;;;23.27;50.95;100829.94;4907119;28;45358;-72
2021/07/14 15:47:42;;;;;;;;;19.50;16.75;;;;;23.34;50.31;100838.53;4906293;28;62193;-71
2021/07/14 15:50:08;;;;;;;;;14.75;13.00;;;;;23.34;49.60;100831.41;4907009;28;47947;-71
2021/07/14 15:52:34;;;;;;;;;14.25;13.00;;;;;23.34;49.90;100830.56;4922756;28;45469;-71
2021/07/14 15:54:59;;;;;;;;;13.25;12.75;;;;;23.34;50.38;100830.56;4922979;28;45334;-71
2021/07/14 15:57:25;;;;;;;;;15.25;14.75;;;;;23.37;49.98;100835.75;4922546;28;45284;-71
2021/07/14 15:59:52;;;;;;;;;15.25;14.75;;;;;23.36;50.21;100842.00;4922028;28;64975;-71
2021/07/14 16:02:19;;;;;;;;;13.25;12.00;;;;;23.34;49.87;100831.41;4924051;28;45313;-71
2021/07/14 16:04:45;;;;;;;;;14.50;13.50;;;;;23.35;49.75;100842.94;4907255;28;45370;-71
2021/07/14 16:07:10;;;;;;;;;15.00;14.00;;;;;23.33;50.36;100829.69;4907033;28;45438;-71
2021/07/14 16:09:35;;;;;;;;;17.00;16.50;;;;;23.35;51.06;100832.28;4907596;28;47168;-72
2021/07/14 16:12:01;;;;;;;;;17.50;16.25;;;;;23.26;51.03;100822.88;4887016;29;69111;-71
2021/07/14 16:14:26;;;;;;;;;17.00;16.50;;;;;23.37;50.12;100841.97;4932698;28;45413;-72
2021/07/14 16:16:51;;;;;;;;;17.00;16.75;;;;;23.39;50.80;100844.56;4906151;28;64735;-72
2021/07/14 16:19:17;;;;;;;;;17.00;15.00;;;;;23.37;50.04;100846.41;4906246;28;57617;-71
2021/07/14 16:21:42;;;;;;;;;17.00;16.25;;;;;23.36;50.49;100828.69;4922539;28;46507;-72
2021/07/14 16:24:08;;;;;;;;;18.75;18.00;;;;;23.42;51.01;100841.75;4906866;28;45355;-71
2021/07/14 16:26:33;;;;;;;;;17.75;17.00;;;;;23.45;50.64;100844.28;4906432;28;49547;-72
2021/07/14 16:29:00;;;;;;;;;16.25;16.00;;;;;23.43;52.66;100835.47;4921954;28;47989;-72
2021/07/14 16:31:25;;;;;;;;;19.75;17.50;;;;;23.44;51.81;100842.53;4922444;28;45323;-73
2021/07/14 16:33:53;;;;;;;;;18.75;17.25;;;;;23.44;52.30;100847.88;4905397;28;55609;-72
2021/07/14 16:36:18;;;;;;;;;18.00;15.50;;;;;23.48;50.97;100844.16;4906830;28;45280;-72
2021/07/14 16:38:44;;;;;;;;;17.00;15.00;;;;;23.48;51.25;100846.81;4905685;28;66321;-72
2021/07/14 16:41:09;;;;;;;;;13.25;11.75;;;;;23.53;50.67;100849.28;4923748;28;45211;-73
2021/07/14 16:43:35;;;;;;;;;18.50;14.75;;;;;23.54;49.99;100851.00;4905991;28;45265;-72
2021/07/14 16:46:00;;;;;;;;;16.50;16.00;;;;;23.55;49.84;100850.09;4890474;28;45279;-74
2021/07/14 16:48:25;;;;;;;;;17.25;14.75;;;;;23.50;50.11;100852.94;4923222;28;46073;-72
2021/07/14 16:50:51;;;;;;;;;17.75;16.00;;;;;23.52;49.52;100844.88;4921234;28;64270;-73
2021/07/14 16:53:16;;;;;;;;;15.75;14.75;;;;;23.52;49.72;100853.75;4921722;28;51342;-73
2021/07/14 16:55:42;;;;;;;;;17.25;13.00;;;;;23.47;49.93;100853.09;4905400;28;56317;-71
2021/07/14 16:58:07;;;;;;;;;17.50;15.75;;;;;23.50;49.57;100860.94;4905617;28;46381;-71
2021/07/14 17:00:32;;;;;;;;;17.75;17.00;;;;;23.50;49.38;100854.75;4905712;28;45445;-71
2021/07/14 17:02:58;;;;;;;;;13.00;13.00;;;;;23.49;49.61;100855.69;4921878;28;45755;-72
2021/07/14 17:05:23;;;;;;;;;15.25;15.25;;;;;23.47;49.77;100860.22;4904895;28;65301;-71
2021/07/14 17:07:49;;;;;;;;;18.25;17.00;;;;;23.46;49.76;100846.03;4886938;28;47008;-72
2021/07/14 17:10:14;;;;;;;;;19.50;17.00;;;;;23.42;49.27;100842.63;4936591;28;45351;-72
2021/07/14 17:12:40;;;;;;;;;17.00;16.50;;;;;23.43;49.75;100854.13;4905522;28;45330;-72
2021/07/14 17:15:06;;;;;;;;;18.50;17.00;;;;;23.41;49.46;100856.00;4905464;28;45457;-73
2021/07/14 17:17:32;;;;;;;;;18.00;14.00;;;;;23.41;50.12;100843.53;4905621;28;47398;-73
2021/07/14 17:19:57;;;;;;;;;22.25;19.00;;;;;23.41;49.88;100848.00;4905435;28;52733;-72
2021/07/14 17:22:23;;;;;;;;;20.50;17.75;;;;;23.40;49.32;100856.94;4921551;28;45339;-72
2021/07/14 17:24:51;;;;;;;;;17.50;16.25;;;;;23.38;49.70;100854.34;4905626;28;46792;-72
2021/07/14 17:27:20;;;;;;;;;19.25;16.50;;;;;23.36;49.33;100865.97;4905790;28;45458;-72
2021/07/14 17:29:46;;;;;;;;;19.75;16.25;;;;;23.36;49.61;100858.84;4905883;28;45386;-71
2021/07/14 17:32:12;;;;;;;;;19.00;18.00;;;;;23.34;49.73;100851.84;4905199;28;45266;-73
2021/07/14 17:34:38;;;;;;;;;16.00;15.00;;;;;23.34;49.11;100855.38;4905062;28;45633;-73
2021/07/14 17:37:04;;;;;;;;;15.75;14.50;;;;;23.33;50.14;100864.31;4920744;28;48367;-72
2021/07/14 17:39:29;;;;;;;;;15.25;13.00;;;;;23.33;50.02;100864.31;4904862;28;45360;-70
2021/07/14 17:41:55;;;;;;;;;16.00;14.75;;;;;23.34;49.96;100867.84;4904907;28;48752;-72
2021/07/14 17:44:22;;;;;;;;;14.50;14.50;;;;;23.28;50.59;100852.09;4919494;28;45291;-80
2021/07/14 17:46:48;;;;;;;;;17.75;15.50;;;;;23.33;50.63;100871.44;4921805;28;45441;-81
2021/07/14 17:49:14;;;;;;;;;16.50;15.50;;;;;23.33;50.61;100866.97;4915064;28;45810;-85
2021/07/14 17:51:39;;;;;;;;;14.75;13.00;;;;;23.29;51.32;100857.38;4934448;28;45277;-90
2021/07/14 17:54:05;;;;;;;;;19.50;18.25;;;;;23.26;50.38;100853.97;4905749;29;44898;-88
2021/07/14 17:56:30;;;;;;;;;18.75;18.25;;;;;23.34;51.13;100870.50;4906089;28;45485;-76
2021/07/14 17:58:56;;;;;;;;;19.50;16.75;;;;;23.34;50.50;100873.16;4904760;28;45899;-75
2021/07/14 18:01:21;;;;;;;;;18.00;17.75;;;;;23.34;50.94;100881.16;4937153;28;45343;-76
2021/07/14 18:03:47;;;;;;;;;17.00;15.50;;;;;23.32;51.13;100881.22;4922082;28;53943;-76
2021/07/14 18:06:12;;;;;;;;;18.00;14.25;;;;;23.27;51.36;100872.53;4922153;28;46630;-78
2021/07/14 18:08:38;;;;;;;;;19.50;17.25;;;;;23.23;50.84;100862.97;4920966;28;45988;-78
2021/07/14 18:11:03;;;;;;;;;18.00;17.25;;;;;23.18;51.82;100856.94;4922439;28;45164;-78
2021/07/14 18:13:29;;;;;;;;;18.25;16.50;;;;;23.31;51.11;100868.84;4921764;28;45273;-76
2021/07/14 18:15:55;;;;;;;;;17.25;17.00;;;;;23.26;51.14;100861.97;4920923;28;45360;-75
2021/07/14 18:18:21;;;;;;;;;18.75;15.25;;;;;23.30;50.97;100868.91;4921906;28;45235;-76
2021/07/14 18:20:46;;;;;;;;;16.00;15.00;;;;;23.31;51.40;100867.97;4922364;28;45452;-74
2021/07/14 18:23:11;;;;;;;;;18.50;16.75;;;;;23.32;51.92;100873.22;4920733;28;45557;-75
2021/07/14 18:25:37;;;;;;;;;17.25;16.75;;;;;23.31;52.22;100858.19;4905091;28;48765;-76
2021/07/14 18:28:06;;;;;;;;;19.50;18.00;;;;;23.30;52.88;100867.09;4904608;28;45767;-83
2021/07/14 18:30:31;;;;;;;;;16.00;14.50;;;;;23.32;51.93;100861.72;4921167;28;45374;-81
2021/07/14 18:32:57;;;;;;;;;15.25;14.75;;;;;23.36;52.07;100872.16;4905031;28;45253;-75
2021/07/14 18:35:22;;;;;;;;;14.75;14.75;;;;;23.34;51.69;100866.03;4920897;28;48384;-73
2021/07/14 18:37:47;;;;;;;;;17.25;15.00;;;;;23.36;51.96;100874.81;4921834;28;45465;-75
2021/07/14 18:40:13;;;;;;;;;14.50;12.75;;;;;23.32;51.80;100865.25;4904961;28;47381;-73
2021/07/14 18:42:38;;;;;;;;;15.50;15.25;;;;;23.30;51.62;100860.91;4920508;28;45303;-72
2021/07/14 18:45:06;;;;;;;;;15.75;15.25;;;;;23.30;51.86;100863.59;4927926;28;45299;-77
2021/07/14 18:47:31;;;;;;;;;14.00;14.00;;;;;23.41;51.09;100879.97;4937481;28;45546;-81
2021/07/14 18:49:59;;;;;;;;;18.00;17.00;;;;;23.39;51.99;100871.19;4905186;28;45379;-77
2021/07/14 18:52:25;;;;;;;;;17.50;16.75;;;;;23.39;52.42;100866.72;4921563;28;45527;-79
2021/07/14 18:54:51;;;;;;;;;15.25;15.00;;;;;23.39;52.45;100872.06;4920609;28;48309;-79
2021/07/14 18:57:16;;;;;;;;;18.50;17.00;;;;;23.41;54.90;100867.53;4922796;28;45279;-75
2021/07/14 18:59:42;;;;;;;;;20.75;18.25;;;;;23.57;53.79;100885.53;4925037;28;47634;-75
2021/07/14 19:02:08;;;;;;;;;18.50;15.50;;;;;23.52;53.33;100860.88;4925057;28;45264;-74
2021/07/14 19:04:33;;;;;;;;;20.75;19.25;;;;;23.64;54.38;100882.56;4924908;28;45379;-82
2021/07/14 19:06:59;;;;;;;;;21.25;19.50;;;;;23.65;54.39;100873.66;4924799;28;45303;-79
2021/07/14 19:09:24;;;;;;;;;21.50;20.25;;;;;23.71;53.05;100882.28;4908086;28;45284;-75
2021/07/14 19:11:50;;;;;;;;;25.00;22.75;;;;;23.73;53.06;100883.97;4924473;28;48411;-75
2021/07/14 19:14:15;;;;;;;;;22.25;20.00;;;;;23.74;52.66;100877.72;4924447;28;45291;-75
2021/07/14 19:16:41;;;;;;;;;20.25;19.50;;;;;23.76;53.62;100893.63;4924621;28;45287;-74
2021/07/14 19:19:06;;;;;;;;;18.00;16.00;;;;;23.80;52.42;100887.22;4924997;28;45379;-74
2021/07/14 19:21:32;;;;;;;;;20.75;20.75;;;;;23.78;52.90;100891.75;4923537;28;45999;-74
2021/07/14 19:23:57;;;;;;;;;23.25;20.50;;;;;23.78;53.03;100889.09;4924586;28;45518;-74
2021/07/14 19:26:23;;;;;;;;;19.75;19.75;;;;;23.77;52.77;100882.91;4928027;28;53374;-75
2021/07/14 19:28:48;;;;;;;;;18.50;16.75;;;;;23.78;51.79;100881.09;4947185;28;45860;-73
2021/07/14 19:31:14;;;;;;;;;20.00;16.50;;;;;23.79;51.99;100885.50;4923052;28;45413;-73
2021/07/14 19:33:39;;;;;;;;;22.25;20.25;;;;;23.80;52.01;100892.56;4907453;28;47987;-73
2021/07/14 19:36:05;;;;;;;;;21.00;18.25;;;;;23.76;52.11;100885.63;4923989;28;52562;-73
2021/07/14 19:38:31;;;;;;;;;20.25;19.50;;;;;23.77;51.94;100893.56;4923659;28;45357;-73
2021/07/14 19:40:56;;;;;;;;;17.50;16.50;;;;;23.69;51.92;100880.56;4923028;28;45506;-74
2021/07/14 19:43:23;;;;;;;;;15.25;15.25;;;;;23.77;51.55;100890.03;4922243;28;62065;-73
2021/07/14 19:45:48;;;;;;;;;20.75;19.00;;;;;23.75;51.54;100895.44;4939017;28;45231;-72
2021/07/14 19:48:14;;;;;;;;;23.25;18.50;;;;;23.75;51.52;100897.22;4923213;28;45448;-73
2021/07/14 19:50:40;;;;;;;;;18.50;16.50;;;;;23.80;52.03;100898.75;4922672;28;45512;-73
2021/07/14 19:53:05;;;;;;;;;19.25;18.25;;;;;23.83;51.39;100897.78;4924556;28;45342;-72
2021/07/14 19:55:31;;;;;;;;;17.50;17.50;;;;;23.85;51.40;100898.56;4939021;28;46060;-75
2021/07/14 19:57:56;;;;;;;;;16.00;14.75;;;;;23.78;52.01;100886.44;4922498;28;52714;-73
2021/07/14 20:00:21;;;;;;;;;17.75;15.25;;;;;23.87;51.96;100896.69;4906754;28;48366;-73
2021/07/14 20:02:47;;;;;;;;;16.75;16.00;;;;;23.88;51.49;100904.63;4890837;28;57450;-74
2021/07/14 20:05:12;;;;;;;;;18.75;18.75;;;;;23.88;52.01;100898.44;4906772;28;45334;-75
2021/07/14 20:07:38;;;;;;;;;22.50;18.00;;;;;23.89;51.75;100897.50;4905991;28;45700;-75
2021/07/14 20:10:05;;;;;;;;;20.25;19.50;;;;;23.88;51.72;100887.75;4938482;28;45316;-72
2021/07/14 20:12:31;;;;;;;;;20.50;18.75;;;;;23.85;51.43;100890.56;4938480;28;45555;-74
2021/07/14 20:14:56;;;;;;;;;17.50;17.25;;;;;23.93;51.38;100905.31;4906119;28;62482;-74
2021/07/14 20:17:23;;;;;;;;;20.75;19.50;;;;;23.97;51.43;100906.03;4924133;28;45770;-72
2021/07/14 20:19:49;;;;;;;;;19.75;19.75;;;;;23.97;51.41;100903.34;4934591;28;45405;-73
2021/07/14 20:22:14;;;;;;;;;18.25;16.00;;;;;23.98;51.32;100910.44;4921992;28;45593;-72
2021/07/14 20:24:40;;;;;;;;;19.50;17.25;;;;;23.98;51.64;100910.44;4921065;28;45331;-74
2021/07/14 20:27:05;;;;;;;;;19.75;18.25;;;;;23.94;51.95;100908.81;4904151;28;47606;-73
2021/07/14 20:29:31;;;;;;;;;19.25;17.75;;;;;23.98;51.56;100918.44;4921210;28;46064;-74
2021/07/14 20:31:56;;;;;;;;;19.25;18.00;;;;;23.98;52.29;100923.78;4937015;28;45454;-73
2021/07/14 20:34:22;;;;;;;;;17.50;16.00;;;;;24.00;52.16;100913.03;4937288;28;45461;-75
2021/07/14 20:36:48;;;;;;;;;18.50;17.50;;;;;23.99;52.34;100914.84;4937816;28;45304;-75
2021/07/14 20:39:13;;;;;;;;;20.50;19.00;;;;;24.02;51.91;100920.03;4921796;28;46082;-74
2021/07/14 20:41:39;;;;;;;;;17.50;16.25;;;;;24.02;52.68;100916.50;4906346;28;45364;-74
2021/07/14 20:44:05;;;;;;;;;16.75;15.25;;;;;24.07;52.94;100928.72;4926042;28;45837;-73
2021/07/14 20:46:30;;;;;;;;;23.25;22.25;;;;;24.07;52.61;100928.72;4922357;28;45347;-74
2021/07/14 20:48:56;;;;;;;;;180.75;176.50;;;;;24.07;54.69;100918.03;4906173;28;45951;-74
2021/07/14 20:51:21;;;;;;;;;55.00;46.00;;;;;24.12;53.09;100933.81;4923155;28;46118;-75
2021/07/14 20:53:47;;;;;;;;;36.50;32.75;;;;;24.11;52.39;100924.97;4921862;28;45266;-74
2021/07/14 20:56:12;;;;;;;;;24.50;22.75;;;;;24.12;51.78;100917.81;4906389;28;45264;-73
2021/07/14 20:58:37;;;;;;;;;17.75;17.75;;;;;24.09;51.87;100920.63;4921464;28;47628;-73
2021/07/14 21:01:03;;;;;;;;;18.50;18.50;;;;;24.08;51.74;100918.91;4920121;28;54662;-75
2021/07/14 21:03:28;;;;;;;;;21.25;19.50;;;;;24.07;51.64;100912.72;4921849;28;45391;-71
2021/07/14 21:05:55;;;;;;;;;20.75;17.75;;;;;24.04;51.48;100923.50;4905441;28;45316;-73
2021/07/14 21:08:21;;;;;;;;;20.75;18.50;;;;;24.04;52.22;100915.50;4905950;28;45501;-73
2021/07/14 21:10:47;;;;;;;;;19.75;18.50;;;;;24.04;51.91;100914.63;4921911;28;46585;-72
2021/07/14 21:13:12;;;;;;;;;18.75;16.75;;;;;24.00;51.97;100918.38;4905518;28;45341;-73
2021/07/14 21:15:38;;;;;;;;;19.00;16.75;;;;;24.01;51.54;100925.44;4922079;28;45256;-72
2021/07/14 21:18:03;;;;;;;;;17.75;17.25;;;;;23.99;51.71;100924.63;4905114;28;65626;-72
2021/07/14 21:20:29;;;;;;;;;18.00;16.25;;;;;23.95;51.43;100913.22;4905756;28;46993;-72
2021/07/14 21:22:54;;;;;;;;;17.25;15.25;;;;;23.93;51.66;100912.44;4923019;28;45322;-72
2021/07/14 21:25:21;;;;;;;;;19.25;18.00;;;;;23.91;51.55;100912.50;4921749;28;45428;-71
2021/07/14 21:27:47;;;;;;;;;16.50;15.25;;;;;23.88;52.20;100915.28;4921313;28;45482;-72
2021/07/14 21:30:13;;;;;;;;;18.75;16.00;;;;;23.83;51.93;100911.09;4905869;28;46292;-73
2021/07/14 21:32:38;;;;;;;;;19.00;17.00;;;;;23.86;52.18;100913.63;4921544;28;45313;-72
2021/07/14 21:35:07;;;;;;;;;16.25;16.00;;;;;23.86;52.06;100918.97;4920906;28;61496;-72
2021/07/14 21:37:36;;;;;;;;;18.25;17.25;;;;;23.85;52.19;100911.91;4905715;28;45282;-72
2021/07/14 21:40:03;;;;;;;;;16.25;14.25;;;;;23.84;51.87;100911.03;4906124;28;47313;-72
2021/07/14 21:42:29;;;;;;;;;18.00;17.25;;;;;23.83;52.04;100911.97;4920890;28;45266;-71
2021/07/14 21:44:54;;;;;;;;;15.00;14.50;;;;;23.82;52.44;100915.56;4921487;28;45285;-71
2021/07/14 21:47:20;;;;;;;;;20.75;19.50;;;;;23.80;52.36;100912.06;4921681;28;68845;-72
2021/07/14 21:49:45;;;;;;;;;17.75;17.00;;;;;23.80;52.52;100917.41;4905343;28;55550;-72
2021/07/14 21:52:10;;;;;;;;;16.25;15.75;;;;;23.80;52.53;100908.53;4920533;28;57935;-71
2021/07/14 21:54:37;;;;;;;;;19.75;16.75;;;;;23.78;52.35;100905.09;4922395;28;53238;-72
2021/07/14 21:57:03;;;;;;;;;18.25;17.50;;;;;23.76;52.25;100896.31;4905556;28;45700;-71
2021/07/14 21:59:28;;;;;;;;;22.75;19.50;;;;;23.72;52.49;100898.25;4919311;28;47197;-72
2021/07/14 22:01:54;;;;;;;;;20.00;18.00;;;;;23.70;51.90;100902.75;4904551;28;59431;-72
2021/07/14 22:04:19;;;;;;;;;23.75;20.25;;;;;23.67;52.18;100897.56;4904497;28;50673;-73
2021/07/14 22:06:45;;;;;;;;;18.75;17.00;;;;;23.62;52.24;100897.75;4920320;28;45608;-71
2021/07/14 22:09:11;;;;;;;;;20.75;18.25;;;;;23.65;52.06;100907.44;4905220;28;46003;-72
2021/07/14 22:11:36;;;;;;;;;17.50;16.00;;;;;23.63;52.45;100902.16;4921024;28;45320;-71
2021/07/14 22:14:02;;;;;;;;;13.00;13.00;;;;;23.63;51.88;100907.50;4920762;28;45256;-72
2021/07/14 22:16:28;;;;;;;;;19.75;19.25;;;;;23.61;52.32;100896.00;4905135;28;45350;-73
2021/07/14 22:18:53;;;;;;;;;20.50;19.50;;;;;23.61;51.90;100904.00;4905094;28;48305;-72
2021/07/14 22:21:23;;;;;;;;;23.25;20.00;;;;;23.62;52.29;100911.06;4905306;28;45317;-72
2021/07/14 22:23:48;;;;;;;;;21.00;18.50;;;;;23.63;52.20;100914.59;4905669;28;45340;-72
2021/07/14 22:26:26;;;;;;;;;19.00;17.75;;;;;23.61;52.54;100913.78;4895773;28;45484;-71
2021/07/14 22:28:52;;;;;;;;;20.50;17.00;;;;;23.61;52.26;100913.78;4936716;28;45423;-73
2021/07/14 22:31:18;;;;;;;;;16.50;14.50;;;;;23.57;52.48;100907.72;4921353;28;45413;-71
2021/07/14 22:33:45;;;;;;;;;19.00;14.75;;;;;23.61;52.11;100912.00;4907783;28;45502;-72
2021/07/14 22:36:12;;;;;;;;;16.50;14.50;;;;;23.61;52.46;100912.00;4924359;28;45501;-73
2021/07/14 22:38:37;;;;;;;;;18.25;17.50;;;;;23.61;52.54;100909.34;4908559;28;47218;-73
2021/07/14 22:41:03;;;;;;;;;15.75;15.75;;;;;23.64;52.75;100916.34;4925261;28;45362;-73
2021/07/14 22:43:38;;;;;;;;;13.00;10.25;;;;;23.62;52.58;100910.19;4911798;28;56701;-71
2021/07/14 22:46:04;;;;;;;;;17.25;15.00;;;;;23.60;52.30;100912.94;4923846;28;45852;-71
2021/07/14 22:48:31;;;;;;;;;15.00;13.50;;;;;23.58;52.88;100913.91;4892498;28;45992;-72
2021/07/14 22:50:57;;;;;;;;;16.75;13.50;;;;;23.58;52.07;100913.91;4907946;28;45221;-72
2021/07/14 22:53:22;;;;;;;;;13.75;13.25;;;;;23.56;52.67;100908.66;4923665;28;57304;-71
2021/07/14 22:55:48;;;;;;;;;14.75;13.75;;;;;23.53;52.21;100911.41;4919691;28;59095;-71